LPPR Airport Information

Runway Information
Runway 17 Length 11417 ft width 148 ft
Elevation 151 ft Threshold 984 ft Heading 169
Runway 35 Length 11417 ft Width 148 ft
Elevation 226 ft Threshold 492 ft Heading 349
Airport Frequencies
Type APP Name APP Frequency 121.1 MHZ
Type ATIS Name ATIS Frequency 124.3 MHZ
Type TWR Name TWR Frequency 118 MHZ
Airport Navaids
Type NDB Name Porto Frequency 367 KHZ
Type NDB Name Porto Frequency 327 KHZ
Type VOR-DME Name Porto Frequency 114100 KHZ
Airport Weather Information & NOTAM
ADDS - METARS form results

(2221 UTC 26 February 2021)
Data provider http://aviationweather.gov/metar/data/
 
METAR text: LPPR 262200Z 11005KT CAVOK 15/10 Q1027
Conditions at: LPPR (PORTO/PEDRAS RUB, PT) observed 2200 UTC 26 February 2021
Temperature: 15.0°C (59°F)
Dewpoint: 10.0°C (50°F) [RH = 72%]
Pressure (altimeter): 30.32 inches Hg (1027.0 mb)
Winds: from the ESE (110 degrees) at 6 MPH (5 knots; 2.6 m/s)
Visibility: 6 or more miles (10+ km)
Ceiling: ceiling and visibility are OK
Clouds: unknown
Weather: no significant weather observed at this time

METAR text: LPPR 262130Z 09003KT CAVOK 14/10 Q1027
Conditions at: LPPR (PORTO/PEDRAS RUB, PT) observed 2130 UTC 26 February 2021
Temperature: 14.0°C (57°F)
Dewpoint: 10.0°C (50°F) [RH = 77%]
Pressure (altimeter): 30.32 inches Hg (1027.0 mb)
Winds: from the E (90 degrees) at 3 MPH (3 knots; 1.5 m/s)
Visibility: 6 or more miles (10+ km)
Ceiling: ceiling and visibility are OK
Clouds: unknown
Weather: no significant weather observed at this time

Forecast for: LPPR (PORTO/PEDRAS RUB, PT)
Text: TAF LPPR 261700Z 2618/2718 32008KT CAVOK
Forecast period: 1800 to 2200 UTC 26 February 2021
Forecast type: FROM: standard forecast or significant change
Winds: from the NW (320 degrees) at 9 MPH (8 knots; 4.1 m/s)
Visibility: 6 or more miles (10+ km)
Ceiling: unknown
Clouds: missing
Weather: NSW  (no significant weather)
Text: BECMG 2622/2624 05005KT
Forecast period: 2200 UTC 26 February 2021 to 0300 UTC 27 February 2021
Forecast type: BECOMING: Conditions expected to become as follows by 0000 UTC 27 February 2021
Winds: from the NE (50 degrees) at 6 MPH (5 knots; 2.6 m/s)
Visibility: 6 or more miles (10+ km)
Ceiling: unknown
Clouds: missing
Weather: NSW  (no significant weather)
Text: BECMG 2703/2706 08008KT
Forecast period: 0300 to 1400 UTC 27 February 2021
Forecast type: BECOMING: Conditions expected to become as follows by 0600 UTC 27 February 2021
Winds: from the E (80 degrees) at 9 MPH (8 knots; 4.1 m/s)
Visibility: 6 or more miles (10+ km)
Ceiling: unknown
Clouds: missing
Weather: NSW  (no significant weather)
Text: BECMG 2714/2717 34008KT
Forecast period: 1400 to 1800 UTC 27 February 2021
Forecast type: BECOMING: Conditions expected to become as follows by 1700 UTC 27 February 2021
Winds: from the NNW (340 degrees) at 9 MPH (8 knots; 4.1 m/s)
Visibility: 6 or more miles (10+ km)
Ceiling: unknown
Clouds: missing
Weather: NSW  (no significant weather)